ノヴォシビルスク の空港の天気 - METARとTAF

トルマチェヴォ空港(ノヴォシビルスク) ( UNNT / OVB ) - ロシア ノヴォシビルスク
飛行場実況気象(Metar)
観測時間06/25 14:30 OMST (06/25 08:30 UTC)
風向・風速西 8m/s
視程10km以上
天気現象
全天を覆う雲 雲底高度 610m
気温21℃
湿度78%
気圧1001hPa
METARUNNT 250830Z 28008MPS 9999 OVC020CB 21/17 Q1001 R25/090070 R16/090070 NOSIG RMK QFE741/0988
過去の天気等 Google飛行場航空写真 Wunderground天気予報

過去48時間のMETAR

飛行場予報(TAF)
データがありません